createdAt,value
2019-02-17T00:00:51.295Z,75.10
2019-02-17T00:03:21.382Z,76.30
2019-02-17T00:05:51.505Z,76.80
2019-02-17T00:08:23.110Z,76.50
2019-02-17T00:10:54.371Z,76.70
2019-02-17T00:13:25.928Z,76.50
2019-02-17T00:15:56.027Z,76.50
2019-02-17T00:18:27.329Z,76.40
2019-02-17T00:20:57.427Z,76.40
2019-02-17T00:23:31.112Z,76.70
2019-02-17T00:26:04.135Z,76.50
2019-02-17T00:28:34.013Z,76.20
2019-02-17T00:31:10.135Z,76.10
2019-02-17T00:33:43.374Z,76.00
2019-02-17T00:36:13.398Z,76.40
2019-02-17T00:38:43.424Z,76.60
2019-02-17T00:41:14.755Z,76.80
2019-02-17T00:43:44.930Z,76.90
2019-02-17T00:46:15.971Z,77.10
2019-02-17T00:48:46.132Z,77.20
2019-02-17T00:51:19.239Z,76.80
2019-02-17T00:53:49.334Z,76.70
2019-02-17T00:56:24.288Z,76.80
2019-02-17T00:58:54.147Z,76.70
2019-02-17T01:01:24.252Z,76.70
2019-02-17T01:03:57.327Z,76.90
2019-02-17T01:06:28.455Z,77.00
2019-02-17T01:08:58.434Z,77.60
2019-02-17T01:11:28.557Z,77.90
2019-02-17T01:14:03.137Z,78.00
2019-02-17T01:16:33.305Z,78.00
2019-02-17T01:19:04.202Z,78.20
2019-02-17T01:21:34.301Z,78.20
2019-02-17T01:24:04.437Z,77.70
2019-02-17T01:26:35.351Z,77.50
2019-02-17T01:29:07.900Z,77.10
2019-02-17T01:31:39.430Z,76.70
2019-02-17T01:34:12.513Z,76.10
2019-02-17T01:36:42.640Z,76.20
2019-02-17T01:39:13.856Z,76.20
2019-02-17T01:41:43.983Z,76.90
2019-02-17T01:44:21.265Z,77.20
2019-02-17T01:46:52.602Z,76.50
2019-02-17T01:49:23.516Z,76.60
2019-02-17T01:51:54.966Z,76.80
2019-02-17T01:54:25.042Z,76.80
2019-02-17T01:56:58.166Z,76.90
2019-02-17T01:59:30.674Z,76.70
2019-02-17T02:02:01.136Z,76.30
2019-02-17T02:04:31.206Z,76.50
2019-02-17T02:07:02.518Z,77.40
2019-02-17T02:09:36.904Z,78.80
2019-02-17T02:12:08.592Z,78.90
2019-02-17T02:14:38.682Z,78.90
2019-02-17T02:17:10.084Z,78.60
2019-02-17T02:19:40.141Z,78.20
2019-02-17T02:22:10.161Z,77.70
2019-02-17T02:24:41.515Z,77.70
2019-02-17T02:27:12.991Z,77.70
2019-02-17T02:29:43.084Z,78.40
2019-02-17T02:32:15.913Z,78.20
2019-02-17T02:34:46.032Z,77.90
2019-02-17T02:37:16.229Z,78.00
2019-02-17T02:39:46.271Z,78.50
2019-02-17T02:42:16.272Z,78.20
2019-02-17T02:44:48.626Z,77.70
2019-02-17T02:47:24.561Z,78.00
2019-02-17T02:49:58.553Z,77.30
2019-02-17T02:52:27.808Z,77.50
2019-02-17T02:54:57.865Z,77.40
2019-02-17T02:57:27.862Z,77.60
2019-02-17T02:59:57.944Z,77.40
2019-02-17T03:02:28.029Z,77.20
2019-02-17T03:04:58.023Z,76.70
2019-02-17T03:07:30.030Z,76.90
2019-02-17T03:09:59.855Z,78.00
2019-02-17T03:12:29.857Z,78.30
2019-02-17T03:14:59.865Z,78.10
2019-02-17T03:17:33.122Z,77.70
2019-02-17T03:20:08.288Z,77.00
2019-02-17T03:22:39.366Z,76.60
2019-02-17T03:25:11.346Z,76.60
2019-02-17T03:27:41.412Z,77.00
2019-02-17T03:30:13.925Z,77.30
2019-02-17T03:32:43.283Z,77.70
2019-02-17T03:35:13.352Z,77.90
2019-02-17T03:37:43.446Z,77.60
2019-02-17T03:40:17.959Z,77.30
2019-02-17T03:42:49.773Z,77.30
2019-02-17T03:45:19.895Z,76.90
2019-02-17T03:47:49.972Z,76.50
2019-02-17T03:50:19.980Z,76.10
2019-02-17T03:52:50.033Z,75.90
2019-02-17T03:55:19.897Z,75.90
2019-02-17T03:57:51.352Z,76.60
2019-02-17T04:00:21.330Z,77.00
2019-02-17T04:02:51.324Z,76.30
2019-02-17T04:05:21.329Z,76.40
2019-02-17T04:07:51.306Z,77.00
2019-02-17T04:10:22.333Z,76.50
2019-02-17T04:12:53.549Z,76.70
2019-02-17T04:15:25.535Z,76.40
2019-02-17T04:17:56.855Z,76.00
2019-02-17T04:20:26.939Z,75.80
2019-02-17T04:22:59.814Z,76.00
2019-02-17T04:25:31.309Z,76.10
2019-02-17T04:28:02.747Z,76.50
2019-02-17T04:30:32.760Z,76.90
2019-02-17T04:33:02.838Z,76.40
2019-02-17T04:35:38.961Z,76.20
2019-02-17T04:38:09.978Z,76.50
2019-02-17T04:40:39.970Z,76.90
2019-02-17T04:43:14.027Z,76.30
2019-02-17T04:45:44.017Z,76.10
2019-02-17T04:48:14.015Z,76.40
2019-02-17T04:50:44.011Z,76.60
2019-02-17T04:53:14.015Z,77.40
2019-02-17T04:55:46.665Z,76.60
2019-02-17T04:58:19.711Z,76.10
2019-02-17T05:00:52.728Z,75.90
2019-02-17T05:03:22.719Z,76.10
2019-02-17T05:05:55.783Z,76.00
2019-02-17T05:08:25.830Z,75.40
2019-02-17T05:11:00.028Z,75.20
2019-02-17T05:13:31.305Z,75.70
2019-02-17T05:16:01.373Z,76.00
2019-02-17T05:18:31.459Z,76.10
2019-02-17T05:21:01.498Z,76.20
2019-02-17T05:23:31.601Z,76.20
2019-02-17T05:26:02.763Z,76.50
2019-02-17T05:28:33.855Z,76.70
2019-02-17T05:31:05.440Z,76.40
2019-02-17T05:33:35.447Z,75.90
2019-02-17T05:36:06.485Z,76.00
2019-02-17T05:38:37.157Z,76.80
2019-02-17T05:41:07.152Z,76.80
2019-02-17T05:43:37.772Z,76.80
2019-02-17T05:46:09.183Z,76.30
2019-02-17T05:48:39.215Z,76.40
2019-02-17T05:51:13.527Z,76.70
2019-02-17T05:53:43.493Z,76.70
2019-02-17T05:56:15.156Z,76.50
2019-02-17T05:58:48.667Z,76.20
2019-02-17T06:01:18.489Z,76.20
2019-02-17T06:03:51.745Z,76.10
2019-02-17T06:06:21.855Z,76.50
2019-02-17T06:08:52.199Z,77.30
2019-02-17T06:11:23.860Z,77.40
2019-02-17T06:13:53.942Z,77.20
2019-02-17T06:16:25.169Z,77.20
2019-02-17T06:18:55.973Z,76.80
2019-02-17T06:21:25.954Z,76.50
2019-02-17T06:23:59.245Z,75.90
2019-02-17T06:26:30.637Z,75.30
2019-02-17T06:29:01.825Z,76.50
2019-02-17T06:31:31.811Z,75.30
2019-02-17T06:34:03.570Z,74.40
2019-02-17T06:36:35.121Z,73.90
2019-02-17T06:39:09.154Z,73.80
2019-02-17T06:41:40.706Z,74.00
2019-02-17T06:44:10.807Z,74.40
2019-02-17T06:46:45.569Z,74.40
2019-02-17T06:49:17.281Z,73.70
2019-02-17T06:51:47.335Z,73.40
2019-02-17T06:54:17.415Z,74.00
2019-02-17T06:56:56.563Z,65.40
2019-02-17T06:59:28.007Z,56.90
2019-02-17T07:01:59.299Z,53.80
2019-02-17T07:04:42.777Z,50.50
2019-02-17T07:07:16.470Z,43.90
2019-02-17T07:09:46.513Z,37.90
2019-02-17T07:12:18.368Z,34.80
2019-02-17T07:14:48.507Z,32.90
2019-02-17T07:17:22.786Z,31.40
2019-02-17T07:19:53.868Z,28.10
2019-02-17T07:22:25.611Z,26.60
2019-02-17T07:24:58.444Z,25.40
2019-02-17T07:27:28.483Z,25.20
2019-02-17T07:29:58.609Z,24.20
2019-02-17T07:32:30.321Z,24.70
2019-02-17T07:35:01.186Z,23.80
2019-02-17T07:37:33.878Z,23.70
2019-02-17T07:40:03.049Z,22.10
2019-02-17T07:42:33.233Z,21.70
2019-02-17T07:45:03.331Z,22.70
2019-02-17T07:47:35.173Z,22.50
2019-02-17T07:50:06.783Z,23.00
2019-02-17T07:52:42.463Z,23.30
2019-02-17T07:55:14.361Z,23.90
2019-02-17T07:57:44.625Z,23.80
2019-02-17T08:00:18.942Z,23.10
2019-02-17T08:02:49.669Z,23.00
2019-02-17T08:05:21.019Z,22.80
2019-02-17T08:07:54.991Z,22.40
2019-02-17T08:10:30.112Z,22.00
2019-02-17T08:13:01.748Z,21.20
2019-02-17T08:15:31.912Z,20.20
2019-02-17T08:18:01.909Z,19.90
2019-02-17T08:20:36.606Z,20.10
2019-02-17T08:23:08.733Z,19.80
2019-02-17T08:25:40.214Z,18.50
2019-02-17T08:28:10.331Z,18.00
2019-02-17T08:30:41.472Z,18.40
2019-02-17T08:33:11.560Z,17.10
2019-02-17T08:35:41.690Z,17.20
2019-02-17T08:38:12.026Z,16.40
2019-02-17T08:40:43.150Z,15.90
2019-02-17T08:43:13.311Z,15.20
2019-02-17T08:45:45.332Z,15.10
2019-02-17T08:48:15.204Z,15.40
2019-02-17T08:50:49.788Z,15.50
2019-02-17T08:53:19.808Z,15.80
2019-02-17T08:55:49.831Z,16.20
2019-02-17T08:58:19.934Z,15.90
2019-02-17T09:00:49.941Z,15.90
2019-02-17T09:03:20.114Z,16.00
2019-02-17T09:05:50.174Z,16.00
2019-02-17T09:08:20.264Z,16.40
2019-02-17T09:10:50.352Z,16.00
2019-02-17T09:13:20.492Z,15.20
2019-02-17T09:15:50.477Z,14.50
2019-02-17T09:18:20.501Z,14.30
2019-02-17T09:20:50.543Z,14.20
2019-02-17T09:23:20.557Z,13.90
2019-02-17T09:25:50.541Z,14.20
2019-02-17T09:28:20.595Z,14.60
2019-02-17T09:30:50.663Z,14.10
2019-02-17T09:33:20.799Z,13.60
2019-02-17T09:35:50.816Z,13.50
2019-02-17T09:38:20.888Z,13.70
2019-02-17T09:40:50.917Z,13.60
2019-02-17T09:43:21.008Z,13.50
2019-02-17T09:45:51.099Z,12.80
2019-02-17T09:48:21.259Z,12.80
2019-02-17T09:50:51.261Z,13.00
2019-02-17T09:53:21.315Z,12.30
2019-02-17T09:55:51.415Z,12.00
2019-02-17T09:58:21.481Z,12.00
2019-02-17T10:00:51.569Z,11.60
2019-02-17T10:03:21.682Z,12.10
2019-02-17T10:05:51.851Z,12.40
2019-02-17T10:08:21.872Z,12.30
2019-02-17T10:10:51.991Z,13.20
2019-02-17T10:13:22.084Z,12.80
2019-02-17T10:15:52.103Z,12.40
2019-02-17T10:18:22.116Z,12.00
2019-02-17T10:20:52.240Z,12.40
2019-02-17T10:23:22.258Z,12.80
2019-02-17T10:25:52.416Z,12.50
2019-02-17T10:28:22.518Z,12.80
2019-02-17T10:30:52.537Z,12.40
2019-02-17T10:33:22.722Z,11.90
2019-02-17T10:35:52.721Z,12.40
2019-02-17T10:38:22.835Z,12.40
2019-02-17T10:40:52.925Z,11.90
2019-02-17T10:43:23.113Z,12.00
2019-02-17T10:45:53.243Z,11.40
2019-02-17T10:48:23.376Z,11.20
2019-02-17T10:50:53.454Z,11.70
2019-02-17T10:53:23.568Z,13.20
2019-02-17T10:55:53.664Z,12.80
2019-02-17T10:58:23.722Z,12.30
2019-02-17T11:00:55.316Z,12.40
2019-02-17T11:03:25.425Z,11.90
2019-02-17T11:05:55.526Z,12.90
2019-02-17T11:08:25.627Z,12.30
2019-02-17T11:10:55.615Z,12.40
2019-02-17T11:13:25.714Z,12.10
2019-02-17T11:15:55.747Z,12.60
2019-02-17T11:18:26.204Z,13.50
2019-02-17T11:20:57.368Z,12.30
2019-02-17T11:23:27.408Z,12.10
2019-02-17T11:25:57.591Z,14.10
2019-02-17T11:28:27.741Z,15.70
2019-02-17T11:30:58.543Z,17.50
2019-02-17T11:33:28.659Z,20.50
2019-02-17T11:35:58.689Z,22.50
2019-02-17T11:38:28.809Z,24.10
2019-02-17T11:40:59.031Z,24.80
2019-02-17T11:43:29.149Z,26.00
2019-02-17T11:45:59.144Z,27.00
2019-02-17T11:48:29.218Z,28.20
2019-02-17T11:50:59.297Z,28.90
2019-02-17T11:53:29.297Z,28.60
2019-02-17T11:55:59.314Z,28.60
2019-02-17T11:58:29.439Z,28.60
2019-02-17T12:00:59.626Z,28.60
2019-02-17T12:03:29.723Z,28.40
2019-02-17T12:05:59.814Z,28.40
2019-02-17T12:08:29.881Z,28.30
2019-02-17T12:10:59.921Z,27.50
2019-02-17T12:13:29.943Z,28.90
2019-02-17T12:16:00.193Z,28.60
2019-02-17T12:18:30.205Z,29.50
2019-02-17T12:21:25.471Z,29.10
2019-02-17T12:24:14.592Z,30.70
2019-02-17T12:27:12.752Z,29.80
2019-02-17T12:29:45.644Z,30.90
2019-02-17T12:32:15.732Z,30.40
2019-02-17T12:34:47.030Z,30.20
2019-02-17T12:37:17.117Z,30.60
2019-02-17T12:39:47.155Z,29.80
2019-02-17T12:42:20.258Z,30.30
2019-02-17T12:44:51.460Z,30.00
2019-02-17T12:47:24.146Z,29.80
2019-02-17T12:49:56.593Z,29.80
2019-02-17T12:52:26.802Z,29.10
2019-02-17T12:54:56.922Z,29.10
2019-02-17T12:57:29.717Z,30.00
2019-02-17T13:00:00.873Z,31.40
2019-02-17T13:02:32.856Z,31.40
2019-02-17T13:05:04.118Z,29.80
2019-02-17T13:07:34.211Z,30.90
2019-02-17T13:10:04.420Z,30.40
2019-02-17T13:12:36.075Z,31.20
2019-02-17T13:15:07.130Z,30.60
2019-02-17T13:17:37.150Z,30.20
2019-02-17T13:20:10.905Z,30.60
2019-02-17T13:22:42.246Z,30.80
2019-02-17T13:25:18.994Z,32.00
2019-02-17T13:27:50.804Z,32.30
2019-02-17T13:30:22.996Z,32.70
2019-02-17T13:32:55.690Z,31.50
2019-02-17T13:35:25.867Z,31.90
2019-02-17T13:38:00.119Z,31.80
2019-02-17T13:40:29.509Z,31.50
2019-02-17T13:43:01.062Z,31.70
2019-02-17T13:45:31.095Z,32.00
2019-02-17T13:48:04.151Z,31.70
2019-02-17T13:50:34.129Z,31.60
2019-02-17T13:53:11.685Z,30.90
2019-02-17T13:55:39.252Z,30.60
2019-02-17T13:58:09.297Z,29.50
2019-02-17T14:00:39.446Z,28.90
2019-02-17T14:03:09.548Z,27.70
2019-02-17T14:05:40.965Z,27.60
2019-02-17T14:08:12.761Z,28.40
2019-02-17T14:10:42.976Z,30.70
2019-02-17T14:13:14.796Z,31.10
2019-02-17T14:15:44.997Z,32.20
2019-02-17T14:18:15.099Z,32.20
2019-02-17T14:20:45.323Z,32.50
2019-02-17T14:23:15.335Z,32.60
2019-02-17T14:25:45.444Z,32.90
2019-02-17T14:28:15.563Z,33.80
2019-02-17T14:30:45.663Z,34.00
2019-02-17T14:33:15.803Z,34.20
2019-02-17T14:35:45.899Z,34.00
2019-02-17T14:38:16.498Z,33.60
2019-02-17T14:40:46.698Z,34.10
2019-02-17T14:46:06.101Z,34.00
2019-02-17T14:48:36.241Z,33.80
2019-02-17T14:51:06.456Z,34.10
2019-02-17T14:53:36.721Z,34.00
2019-02-17T14:56:06.941Z,34.20
2019-02-17T14:58:37.207Z,34.30
2019-02-17T15:01:07.359Z,34.50
2019-02-17T15:03:37.602Z,34.30
2019-02-17T15:06:07.819Z,34.70
2019-02-17T15:08:38.053Z,34.60
2019-02-17T15:11:08.277Z,34.80
2019-02-17T15:13:41.302Z,34.90
2019-02-17T15:16:11.586Z,34.40
2019-02-17T15:18:42.181Z,34.50
2019-02-17T15:21:15.153Z,35.00
2019-02-17T15:23:45.379Z,34.70
2019-02-17T15:26:15.774Z,35.00
2019-02-17T15:28:50.950Z,35.20
2019-02-17T15:31:18.107Z,35.40
2019-02-17T15:33:50.299Z,35.30
2019-02-17T15:36:20.460Z,35.60
2019-02-17T15:38:50.669Z,35.90
2019-02-17T15:41:20.823Z,36.90
2019-02-17T15:43:52.157Z,36.50
2019-02-17T15:46:22.326Z,36.80
2019-02-17T15:48:54.365Z,36.90
2019-02-17T15:51:25.673Z,37.00
2019-02-17T15:53:57.089Z,37.30
2019-02-17T15:56:28.193Z,37.50
2019-02-17T15:58:58.959Z,38.40
2019-02-17T16:01:30.129Z,39.90
2019-02-17T16:04:01.428Z,41.50
2019-02-17T16:06:36.033Z,43.00
2019-02-17T16:09:07.998Z,44.40
2019-02-17T16:11:38.535Z,45.30
2019-02-17T16:14:08.770Z,47.00
2019-02-17T16:16:39.901Z,47.30
2019-02-17T16:19:10.221Z,47.60
2019-02-17T16:21:40.465Z,49.20
2019-02-17T16:24:10.697Z,49.90
2019-02-17T16:26:40.923Z,50.10
2019-02-17T16:29:11.378Z,51.30
2019-02-17T16:31:41.757Z,52.20
2019-02-17T16:34:12.439Z,52.50
2019-02-17T16:36:42.756Z,52.50
2019-02-17T16:39:15.879Z,52.70
2019-02-17T16:41:49.051Z,53.20
2019-02-17T16:44:24.730Z,53.90
2019-02-17T16:46:55.076Z,54.20
2019-02-17T16:49:25.649Z,54.40
2019-02-17T16:51:55.877Z,54.70
2019-02-17T16:54:26.163Z,55.20
2019-02-17T16:56:56.417Z,55.70
2019-02-17T16:59:26.709Z,56.30
2019-02-17T17:01:56.983Z,56.50
2019-02-17T17:04:28.757Z,57.10
2019-02-17T17:07:01.002Z,56.90
2019-02-17T17:09:34.941Z,57.50
2019-02-17T17:12:09.850Z,57.70
2019-02-17T17:14:41.401Z,58.30
2019-02-17T17:17:12.522Z,57.90
2019-02-17T17:19:45.008Z,58.60
2019-02-17T17:22:17.150Z,59.40
2019-02-17T17:24:50.012Z,59.30
2019-02-17T17:27:20.255Z,59.60
2019-02-17T17:29:54.538Z,59.40
2019-02-17T17:32:28.410Z,59.70
2019-02-17T17:34:59.928Z,60.00
2019-02-17T17:37:31.252Z,60.40
2019-02-17T17:40:04.417Z,60.70
2019-02-17T17:42:37.838Z,60.70
2019-02-17T17:45:13.463Z,60.80
2019-02-17T17:47:44.651Z,61.10
2019-02-17T17:50:16.348Z,61.20
2019-02-17T17:52:47.627Z,61.70
2019-02-17T17:55:23.326Z,61.60
2019-02-17T17:57:59.747Z,62.00
2019-02-17T18:00:35.566Z,62.10
2019-02-17T18:03:09.491Z,61.10
2019-02-17T18:05:41.922Z,61.40
2019-02-17T18:08:12.807Z,62.40
2019-02-17T18:10:45.264Z,62.20
2019-02-17T18:13:16.843Z,62.00
2019-02-17T18:15:49.173Z,62.50
2019-02-17T18:18:21.441Z,62.50
2019-02-17T18:20:53.756Z,62.50
2019-02-17T18:23:26.903Z,63.00
2019-02-17T18:25:59.812Z,63.40
2019-02-17T18:28:32.988Z,63.80
2019-02-17T18:31:07.751Z,63.90
2019-02-17T18:33:38.326Z,64.40
2019-02-17T18:36:10.984Z,64.20
2019-02-17T18:38:45.696Z,64.40
2019-02-17T18:41:16.310Z,64.90
2019-02-17T18:43:48.057Z,65.40
2019-02-17T18:46:21.344Z,65.00
2019-02-17T18:48:52.061Z,65.10
2019-02-17T18:51:23.175Z,65.20
2019-02-17T18:53:57.345Z,66.60
2019-02-17T18:56:31.245Z,66.20
2019-02-17T18:59:04.786Z,66.00
2019-02-17T19:01:36.561Z,66.20
2019-02-17T19:04:07.763Z,65.90
2019-02-17T19:06:41.748Z,66.30
2019-02-17T19:09:14.609Z,66.80
2019-02-17T19:11:45.277Z,67.30
2019-02-17T19:14:15.987Z,67.40
2019-02-17T19:16:47.322Z,67.30
2019-02-17T19:19:17.867Z,66.80
2019-02-17T19:21:48.728Z,66.60
2019-02-17T19:24:20.592Z,67.10
2019-02-17T19:26:52.535Z,67.20
2019-02-17T19:29:23.440Z,66.10
2019-02-17T19:31:54.362Z,66.60
2019-02-17T19:34:25.083Z,67.90
2019-02-17T19:36:56.820Z,67.60
2019-02-17T19:39:28.156Z,67.20
2019-02-17T19:41:58.786Z,67.90
2019-02-17T19:44:35.288Z,67.80
2019-02-17T19:47:05.815Z,68.00
2019-02-17T19:49:39.523Z,68.40
2019-02-17T19:52:09.864Z,67.70
2019-02-17T19:54:42.587Z,67.50
2019-02-17T19:57:13.360Z,67.80
2019-02-17T19:59:47.749Z,67.60
2019-02-17T20:02:22.403Z,68.30
2019-02-17T20:05:14.508Z,68.50
2019-02-17T20:07:45.066Z,68.10
2019-02-17T20:10:15.751Z,67.80
2019-02-17T20:12:46.133Z,68.10
2019-02-17T20:15:16.874Z,68.20
2019-02-17T20:17:48.415Z,68.60
2019-02-17T20:20:18.833Z,68.60
2019-02-17T20:22:52.160Z,69.20
2019-02-17T20:25:23.705Z,69.30
2019-02-17T20:27:54.110Z,69.80
2019-02-17T20:30:25.457Z,69.60
2019-02-17T20:32:55.891Z,69.80
2019-02-17T20:35:26.417Z,69.20
2019-02-17T20:37:57.110Z,69.70
2019-02-17T20:40:29.119Z,69.60
2019-02-17T20:42:59.567Z,70.80
2019-02-17T20:45:32.700Z,70.60
2019-02-17T20:48:03.005Z,70.20
2019-02-17T20:50:34.709Z,70.10
2019-02-17T20:53:05.000Z,70.40
2019-02-17T20:55:35.402Z,70.50
2019-02-17T20:58:05.720Z,70.90
2019-02-17T21:00:37.938Z,70.90
2019-02-17T21:03:09.923Z,70.90
2019-02-17T21:05:41.105Z,71.20
2019-02-17T21:08:13.217Z,71.20
2019-02-17T21:10:43.950Z,71.70
2019-02-17T21:13:16.657Z,72.00
2019-02-17T21:15:46.958Z,71.20
2019-02-17T21:18:18.365Z,71.40
2019-02-17T21:20:48.532Z,71.70
2019-02-17T21:23:19.548Z,71.90
2019-02-17T21:25:49.797Z,72.20
2019-02-17T21:28:20.399Z,72.40
2019-02-17T21:30:50.911Z,72.50
2019-02-17T21:33:21.465Z,73.00
2019-02-17T21:35:52.300Z,73.00
2019-02-17T21:38:22.514Z,73.10
2019-02-17T21:40:52.764Z,73.30
2019-02-17T21:43:25.655Z,72.80
2019-02-17T21:45:57.061Z,72.50
2019-02-17T21:48:28.383Z,72.20
2019-02-17T21:51:03.292Z,72.20
2019-02-17T21:53:35.401Z,72.20
2019-02-17T21:56:05.295Z,72.40
2019-02-17T21:58:35.482Z,72.00
2019-02-17T22:01:13.464Z,72.60
2019-02-17T22:03:43.585Z,72.70
2019-02-17T22:06:13.724Z,73.00
2019-02-17T22:08:46.898Z,73.10
2019-02-17T22:11:17.260Z,73.00
2019-02-17T22:13:49.763Z,72.80
2019-02-17T22:16:20.987Z,73.00
2019-02-17T22:18:52.365Z,73.20
2019-02-17T22:21:22.578Z,74.00
2019-02-17T22:23:52.728Z,72.80
2019-02-17T22:26:22.828Z,72.90
2019-02-17T22:28:54.634Z,72.80
2019-02-17T22:31:25.749Z,73.00
2019-02-17T22:33:55.742Z,72.90
2019-02-17T22:36:25.826Z,73.10
2019-02-17T22:38:56.004Z,73.30
2019-02-17T22:41:26.081Z,73.30
2019-02-17T22:43:57.648Z,73.10
2019-02-17T22:46:28.387Z,73.60
2019-02-17T22:48:58.639Z,73.80
2019-02-17T22:51:30.419Z,73.30
2019-02-17T22:54:04.276Z,74.00
2019-02-17T22:56:38.635Z,74.20
2019-02-17T22:59:08.725Z,73.80
2019-02-17T23:01:44.648Z,74.20
2019-02-17T23:04:17.982Z,73.70
2019-02-17T23:06:54.399Z,73.70
2019-02-17T23:09:27.085Z,73.10
2019-02-17T23:11:57.195Z,73.40
2019-02-17T23:14:27.283Z,73.60
2019-02-17T23:17:00.207Z,74.30
2019-02-17T23:19:30.281Z,75.30
2019-02-17T23:22:00.357Z,75.10
2019-02-17T23:24:31.300Z,75.00
2019-02-17T23:27:04.151Z,75.50
2019-02-17T23:29:34.442Z,76.50
2019-02-17T23:32:05.313Z,76.70
2019-02-17T23:34:35.397Z,76.90
2019-02-17T23:37:05.488Z,76.80
2019-02-17T23:39:40.036Z,76.50
2019-02-17T23:42:10.147Z,76.10
2019-02-17T23:44:41.412Z,76.10
2019-02-17T23:47:13.202Z,74.70
2019-02-17T23:49:45.012Z,74.60
2019-02-17T23:52:16.573Z,74.70
2019-02-17T23:54:46.644Z,74.40
2019-02-17T23:57:18.310Z,74.90
2019-02-17T23:59:48.391Z,74.60
